createdAt,value
2023-04-22T00:01:05.278Z,40.40
2023-04-22T00:03:33.908Z,40.40
2023-04-22T00:06:01.153Z,40.30
2023-04-22T00:08:28.882Z,40.30
2023-04-22T00:10:56.692Z,40.30
2023-04-22T00:13:23.506Z,40.20
2023-04-22T00:15:50.327Z,40.20
2023-04-22T00:18:17.803Z,40.20
2023-04-22T00:20:45.118Z,40.10
2023-04-22T00:23:12.637Z,40.20
2023-04-22T00:25:40.406Z,40.20
2023-04-22T00:28:08.707Z,40.20
2023-04-22T00:30:36.303Z,40.20
2023-04-22T00:33:03.343Z,40.10
2023-04-22T00:35:30.748Z,40.00
2023-04-22T00:37:57.511Z,40.00
2023-04-22T00:40:24.262Z,40.00
2023-04-22T00:42:51.233Z,40.00
2023-04-22T00:45:19.827Z,40.00
2023-04-22T00:47:47.250Z,39.90
2023-04-22T00:50:15.133Z,39.80
2023-04-22T00:52:42.061Z,39.70
2023-04-22T00:55:09.368Z,39.60
2023-04-22T00:57:37.042Z,39.60
2023-04-22T01:00:05.535Z,39.60
2023-04-22T01:02:33.204Z,39.50
2023-04-22T01:05:01.131Z,39.50
2023-04-22T01:07:28.553Z,39.50
2023-04-22T01:09:55.544Z,39.50
2023-04-22T01:12:22.406Z,39.50
2023-04-22T01:14:49.380Z,39.40
2023-04-22T01:17:16.634Z,39.50
2023-04-22T01:19:44.372Z,39.50
2023-04-22T01:22:13.834Z,39.50
2023-04-22T01:24:40.825Z,39.50
2023-04-22T01:27:08.536Z,39.40
2023-04-22T01:29:38.476Z,39.40
2023-04-22T01:32:05.944Z,39.40
2023-04-22T01:34:34.027Z,39.40
2023-04-22T01:37:00.819Z,39.30
2023-04-22T01:39:27.934Z,39.30
2023-04-22T01:41:56.706Z,39.30
2023-04-22T01:44:24.188Z,39.20
2023-04-22T01:46:51.075Z,39.30
2023-04-22T01:49:17.945Z,39.20
2023-04-22T01:51:44.803Z,39.10
2023-04-22T01:54:12.354Z,39.10
2023-04-22T01:56:40.490Z,39.00
2023-04-22T01:59:08.246Z,39.00
2023-04-22T02:01:35.199Z,39.00
2023-04-22T02:04:02.129Z,38.90
2023-04-22T02:06:31.639Z,39.00
2023-04-22T02:08:59.652Z,39.00
2023-04-22T02:11:26.417Z,39.00
2023-04-22T02:13:53.181Z,39.10
2023-04-22T02:16:20.002Z,39.10
2023-04-22T02:18:46.831Z,39.10
2023-04-22T02:21:14.152Z,39.20
2023-04-22T02:23:41.358Z,39.20
2023-04-22T02:26:08.487Z,39.20
2023-04-22T02:28:35.376Z,39.10
2023-04-22T02:31:02.384Z,39.30
2023-04-22T02:33:29.289Z,39.20
2023-04-22T02:35:56.018Z,39.20
2023-04-22T02:38:22.760Z,39.10
2023-04-22T02:40:49.559Z,39.00
2023-04-22T02:43:16.322Z,38.90
2023-04-22T02:45:43.257Z,38.80
2023-04-22T02:48:10.159Z,39.50
2023-04-22T02:50:37.152Z,38.80
2023-04-22T02:53:03.908Z,38.80
2023-04-22T02:55:31.057Z,38.80
2023-04-22T02:57:57.796Z,38.70
2023-04-22T03:00:24.632Z,38.70
2023-04-22T03:02:51.665Z,38.60
2023-04-22T03:05:18.715Z,38.50
2023-04-22T03:07:47.455Z,38.40
2023-04-22T03:10:15.232Z,38.40
2023-04-22T03:12:42.464Z,38.40
2023-04-22T03:15:09.597Z,38.40
2023-04-22T03:17:36.998Z,38.30
2023-04-22T03:20:04.183Z,38.30
2023-04-22T03:22:30.906Z,38.30
2023-04-22T03:24:57.746Z,38.20
2023-04-22T03:27:24.575Z,38.10
2023-04-22T03:29:52.212Z,38.00
2023-04-22T03:32:19.058Z,38.00
2023-04-22T03:34:45.944Z,38.10
2023-04-22T03:37:12.772Z,38.00
2023-04-22T03:39:39.754Z,38.00
2023-04-22T03:42:06.723Z,38.00
2023-04-22T03:44:33.828Z,38.00
2023-04-22T03:47:00.888Z,38.00
2023-04-22T03:49:28.999Z,38.10
2023-04-22T03:51:55.952Z,38.10
2023-04-22T03:54:22.814Z,38.10
2023-04-22T03:56:50.336Z,38.00
2023-04-22T03:59:18.470Z,38.00
2023-04-22T04:01:50.569Z,38.00
2023-04-22T04:04:17.563Z,38.00
2023-04-22T04:06:44.467Z,38.00
2023-04-22T04:09:12.062Z,37.90
2023-04-22T04:11:38.913Z,37.80
2023-04-22T04:14:05.660Z,37.60
2023-04-22T04:16:32.453Z,37.40
2023-04-22T04:18:59.602Z,37.30
2023-04-22T04:21:26.873Z,37.10
2023-04-22T04:23:53.605Z,37.10
2023-04-22T04:26:20.493Z,37.10
2023-04-22T04:28:49.166Z,37.00
2023-04-22T04:31:16.008Z,36.90
2023-04-22T04:33:43.391Z,36.80
2023-04-22T04:36:10.795Z,36.50
2023-04-22T04:38:37.820Z,36.50
2023-04-22T04:41:05.459Z,36.40
2023-04-22T04:43:32.204Z,36.40
2023-04-22T04:45:58.949Z,36.40
2023-04-22T04:48:27.012Z,36.40
2023-04-22T04:50:54.236Z,36.30
2023-04-22T04:53:22.859Z,36.40
2023-04-22T04:55:49.659Z,36.50
2023-04-22T04:58:16.379Z,36.60
2023-04-22T05:00:43.111Z,36.60
2023-04-22T05:03:10.019Z,36.70
2023-04-22T05:05:36.948Z,36.60
2023-04-22T05:08:03.699Z,36.50
2023-04-22T05:10:30.877Z,36.50
2023-04-22T05:12:57.628Z,36.50
2023-04-22T05:15:24.447Z,37.20
2023-04-22T05:17:51.228Z,36.50
2023-04-22T05:20:18.027Z,36.60
2023-04-22T05:22:45.879Z,36.70
2023-04-22T05:25:12.670Z,36.60
2023-04-22T05:27:40.957Z,36.70
2023-04-22T05:30:08.377Z,36.80
2023-04-22T05:32:35.424Z,36.80
2023-04-22T05:35:02.992Z,36.90
2023-04-22T05:37:29.796Z,37.00
2023-04-22T05:39:56.537Z,37.00
2023-04-22T05:42:23.295Z,37.10
2023-04-22T05:44:51.117Z,37.30
2023-04-22T05:47:18.457Z,37.30
2023-04-22T05:49:45.267Z,37.40
2023-04-22T05:52:12.682Z,37.60
2023-04-22T05:54:39.468Z,37.70
2023-04-22T05:57:06.666Z,37.90
2023-04-22T05:59:33.589Z,38.00
2023-04-22T06:02:00.357Z,38.20
2023-04-22T06:04:27.698Z,38.20
2023-04-22T06:06:54.774Z,38.20
2023-04-22T06:09:22.016Z,38.10
2023-04-22T06:11:48.807Z,38.20
2023-04-22T06:14:15.704Z,38.20
2023-04-22T06:16:42.482Z,38.30
2023-04-22T06:19:09.251Z,38.30
2023-04-22T06:21:38.112Z,38.30
2023-04-22T06:24:06.052Z,38.40
2023-04-22T06:26:33.021Z,38.50
2023-04-22T06:28:59.994Z,38.60
2023-04-22T06:31:26.793Z,38.90
2023-04-22T06:33:53.538Z,39.10
2023-04-22T06:36:20.365Z,39.30
2023-04-22T06:38:47.106Z,39.50
2023-04-22T06:41:14.060Z,39.70
2023-04-22T06:43:40.807Z,39.80
2023-04-22T06:46:07.668Z,39.90
2023-04-22T06:48:34.809Z,40.00
2023-04-22T06:51:02.007Z,40.10
2023-04-22T06:53:28.948Z,40.20
2023-04-22T06:55:55.798Z,40.10
2023-04-22T06:58:22.989Z,40.00
2023-04-22T07:00:49.880Z,40.00
2023-04-22T07:03:16.807Z,40.00
2023-04-22T07:05:43.890Z,40.00
2023-04-22T07:08:11.796Z,40.10
2023-04-22T07:10:38.958Z,40.20
2023-04-22T07:13:05.774Z,40.30
2023-04-22T07:15:32.553Z,40.30
2023-04-22T07:17:59.459Z,40.30
2023-04-22T07:20:26.353Z,40.30
2023-04-22T07:22:53.173Z,40.30
2023-04-22T07:25:19.862Z,40.40
2023-04-22T07:27:46.725Z,40.40
2023-04-22T07:30:13.908Z,40.50
2023-04-22T07:32:40.749Z,40.40
2023-04-22T07:35:07.866Z,40.40
2023-04-22T07:37:34.630Z,40.30
2023-04-22T07:40:01.370Z,40.30
2023-04-22T07:42:28.163Z,40.30
2023-04-22T07:44:54.900Z,40.40
2023-04-22T07:47:21.711Z,40.40
2023-04-22T07:49:49.206Z,40.30
2023-04-22T07:52:15.989Z,40.20
2023-04-22T07:54:43.100Z,40.10
2023-04-22T07:57:10.018Z,40.10
2023-04-22T07:59:37.236Z,40.30
2023-04-22T08:02:04.272Z,40.30
2023-04-22T08:04:32.010Z,40.40
2023-04-22T08:06:59.051Z,40.50
2023-04-22T08:09:26.277Z,40.50
2023-04-22T08:11:54.368Z,40.70
2023-04-22T08:14:21.163Z,40.90
2023-04-22T08:16:47.999Z,41.20
2023-04-22T08:19:14.768Z,41.30
2023-04-22T08:21:41.878Z,41.30
2023-04-22T08:24:08.620Z,41.40
2023-04-22T08:26:37.174Z,42.00
2023-04-22T08:29:04.505Z,41.40
2023-04-22T08:31:32.077Z,41.20
2023-04-22T08:33:58.839Z,41.20
2023-04-22T08:36:27.455Z,40.90
2023-04-22T08:38:55.238Z,40.80
2023-04-22T08:41:22.733Z,40.70
2023-04-22T08:43:49.648Z,40.60
2023-04-22T08:46:19.957Z,40.70
2023-04-22T08:48:51.127Z,40.80
2023-04-22T08:51:18.243Z,40.80
2023-04-22T08:53:45.056Z,40.70
2023-04-22T08:56:13.674Z,40.50
2023-04-22T08:58:43.855Z,40.40
2023-04-22T09:01:11.851Z,40.40
2023-04-22T09:03:42.254Z,40.40
2023-04-22T09:06:11.238Z,40.50
2023-04-22T09:08:38.842Z,40.60
2023-04-22T09:11:06.110Z,40.70
2023-04-22T09:13:34.532Z,40.70
2023-04-22T09:16:01.585Z,40.70
2023-04-22T09:18:28.837Z,40.50
2023-04-22T09:20:56.932Z,40.40
2023-04-22T09:23:24.399Z,40.20
2023-04-22T09:25:51.339Z,40.00
2023-04-22T09:28:19.330Z,40.00
2023-04-22T09:30:47.104Z,40.10
2023-04-22T09:33:14.855Z,40.10
2023-04-22T09:35:43.405Z,40.10
2023-04-22T09:38:12.024Z,40.00
2023-04-22T09:40:42.843Z,39.90
2023-04-22T09:43:10.804Z,39.70
2023-04-22T09:45:42.905Z,39.60
2023-04-22T09:48:20.045Z,39.60
2023-04-22T09:50:49.544Z,39.70
2023-04-22T09:53:19.094Z,39.90
2023-04-22T09:55:51.986Z,40.00
2023-04-22T09:58:20.861Z,39.90
2023-04-22T10:00:51.130Z,40.00
2023-04-22T10:03:19.038Z,40.00
2023-04-22T10:05:46.236Z,40.10
2023-04-22T10:08:14.679Z,40.20
2023-04-22T10:10:41.925Z,40.30
2023-04-22T10:13:09.368Z,40.40
2023-04-22T10:15:40.918Z,40.50
2023-04-22T10:18:13.800Z,40.60
2023-04-22T10:20:42.953Z,40.60
2023-04-22T10:23:17.900Z,40.60
2023-04-22T10:25:52.974Z,40.60
2023-04-22T10:28:21.884Z,40.60
2023-04-22T10:30:48.883Z,40.70
2023-04-22T10:33:22.374Z,40.80
2023-04-22T10:36:17.147Z,40.90
2023-04-22T10:38:50.117Z,41.00
2023-04-22T10:41:22.545Z,41.00
2023-04-22T10:43:59.572Z,41.10
2023-04-22T10:46:37.226Z,41.30
2023-04-22T10:49:10.399Z,41.30
2023-04-22T10:51:44.315Z,41.30
2023-04-22T10:54:36.603Z,41.30
2023-04-22T10:57:16.404Z,41.40
2023-04-22T10:59:56.285Z,41.70
2023-04-22T11:02:24.244Z,41.40
2023-04-22T11:04:54.409Z,41.30
2023-04-22T11:07:31.678Z,41.30
2023-04-22T11:10:07.806Z,41.30
2023-04-22T11:12:42.625Z,41.20
2023-04-22T11:15:15.378Z,41.20
2023-04-22T11:17:44.254Z,41.00
2023-04-22T11:20:12.904Z,41.70
2023-04-22T11:22:43.703Z,40.90
2023-04-22T11:25:11.346Z,40.90
2023-04-22T11:27:40.226Z,41.00
2023-04-22T11:30:08.760Z,40.90
2023-04-22T11:32:37.079Z,40.80
2023-04-22T11:35:08.789Z,40.70
2023-04-22T11:37:55.836Z,40.60
2023-04-22T11:40:46.146Z,40.50
2023-04-22T11:43:14.017Z,40.50
2023-04-22T11:45:41.117Z,40.40
2023-04-22T11:48:09.829Z,40.40
2023-04-22T11:50:38.839Z,40.30
2023-04-22T11:53:20.068Z,40.90
2023-04-22T11:55:51.011Z,40.10
2023-04-22T11:58:19.074Z,40.00
2023-04-22T12:00:47.339Z,40.00
2023-04-22T12:03:16.147Z,40.00
2023-04-22T12:05:51.478Z,39.90
2023-04-22T12:08:24.729Z,39.90
2023-04-22T12:10:54.523Z,39.80
2023-04-22T12:13:30.419Z,39.80
2023-04-22T12:16:02.490Z,39.80
2023-04-22T12:18:38.449Z,39.70
2023-04-22T12:21:12.860Z,39.70
2023-04-22T12:23:44.294Z,39.70
2023-04-22T12:26:12.928Z,39.70
2023-04-22T12:28:42.431Z,39.70
2023-04-22T12:31:09.519Z,39.60
2023-04-22T12:33:37.435Z,39.60
2023-04-22T12:36:05.663Z,39.60
2023-04-22T12:38:33.009Z,39.50
2023-04-22T12:41:00.185Z,39.60
2023-04-22T12:43:27.374Z,39.50
2023-04-22T12:45:54.257Z,39.50
2023-04-22T12:48:21.368Z,39.50
2023-04-22T12:50:48.170Z,39.50
2023-04-22T12:53:16.601Z,39.50
2023-04-22T12:55:45.852Z,39.50
2023-04-22T12:58:13.635Z,39.60
2023-04-22T13:00:40.826Z,39.60
2023-04-22T13:03:07.995Z,39.60
2023-04-22T13:05:35.014Z,39.60
2023-04-22T13:08:07.143Z,39.60
2023-04-22T13:10:36.099Z,39.70
2023-04-22T13:15:34.537Z,39.70
2023-04-22T13:18:02.097Z,39.70
2023-04-22T13:20:29.171Z,39.60
2023-04-22T13:22:56.074Z,39.60
2023-04-22T13:25:23.012Z,39.50
2023-04-22T13:27:49.798Z,39.50
2023-04-22T13:30:16.696Z,39.50
2023-04-22T13:32:43.557Z,39.50
2023-04-22T13:35:10.396Z,39.40
2023-04-22T13:37:37.626Z,39.20
2023-04-22T13:40:05.987Z,39.10
2023-04-22T13:42:32.790Z,39.00
2023-04-22T13:44:59.847Z,39.00
2023-04-22T13:47:27.116Z,39.00
2023-04-22T13:49:53.862Z,39.10
2023-04-22T13:52:20.780Z,39.30
2023-04-22T13:54:47.704Z,39.30
2023-04-22T13:57:14.487Z,39.40
2023-04-22T13:59:42.228Z,39.40
2023-04-22T14:02:09.261Z,39.50
2023-04-22T14:04:36.813Z,39.60
2023-04-22T14:07:04.212Z,39.60
2023-04-22T14:09:33.625Z,39.70
2023-04-22T14:12:01.174Z,39.70
2023-04-22T14:14:28.029Z,39.80
2023-04-22T14:16:55.449Z,39.80
2023-04-22T14:19:23.370Z,39.80
2023-04-22T14:21:50.143Z,39.90
2023-04-22T14:24:17.020Z,39.90
2023-04-22T14:26:44.510Z,39.90
2023-04-22T14:29:11.266Z,39.90
2023-04-22T14:31:38.384Z,40.00
2023-04-22T14:34:05.522Z,39.90
2023-04-22T14:36:32.665Z,39.90
2023-04-22T14:38:59.808Z,39.90
2023-04-22T14:41:27.381Z,39.90
2023-04-22T14:43:54.312Z,39.80
2023-04-22T14:46:21.884Z,39.80
2023-04-22T14:48:48.649Z,39.90
2023-04-22T14:51:15.411Z,39.90
2023-04-22T14:53:43.025Z,40.10
2023-04-22T14:56:11.864Z,40.20
2023-04-22T14:58:38.905Z,40.40
2023-04-22T15:01:07.509Z,40.40
2023-04-22T15:03:36.011Z,40.60
2023-04-22T15:06:03.395Z,40.60
2023-04-22T15:08:30.393Z,40.60
2023-04-22T15:10:59.530Z,40.70
2023-04-22T15:13:26.380Z,40.70
2023-04-22T15:15:53.324Z,40.70
2023-04-22T15:18:21.079Z,40.60
2023-04-22T15:20:47.810Z,40.60
2023-04-22T15:23:14.641Z,40.60
2023-04-22T15:25:41.572Z,40.50
2023-04-22T15:28:08.958Z,40.40
2023-04-22T15:30:36.650Z,40.50
2023-04-22T15:33:04.931Z,40.30
2023-04-22T15:35:31.971Z,40.30
2023-04-22T15:37:58.803Z,40.30
2023-04-22T15:40:26.740Z,40.30
2023-04-22T15:42:53.525Z,40.30
2023-04-22T15:45:20.458Z,40.30
2023-04-22T15:47:47.342Z,40.30
2023-04-22T15:50:14.300Z,40.20
2023-04-22T15:52:41.082Z,40.20
2023-04-22T15:55:08.267Z,40.30
2023-04-22T15:57:35.722Z,40.40
2023-04-22T16:00:13.131Z,40.50
2023-04-22T16:02:42.614Z,40.50
2023-04-22T16:05:11.294Z,40.60
2023-04-22T16:07:38.124Z,40.70
2023-04-22T16:10:05.412Z,40.70
2023-04-22T16:12:34.036Z,40.90
2023-04-22T16:15:01.322Z,40.90
2023-04-22T16:17:28.246Z,40.90
2023-04-22T16:19:55.377Z,41.60
2023-04-22T16:22:22.563Z,40.90
2023-04-22T16:24:49.788Z,40.90
2023-04-22T16:27:18.371Z,41.00
2023-04-22T16:29:45.939Z,41.00
2023-04-22T16:32:12.686Z,41.00
2023-04-22T16:34:39.576Z,41.10
2023-04-22T16:37:06.589Z,41.00
2023-04-22T16:39:33.577Z,41.10
2023-04-22T16:42:02.315Z,41.00
2023-04-22T16:44:29.575Z,41.00
2023-04-22T16:46:56.314Z,41.00
2023-04-22T16:49:23.140Z,41.00
2023-04-22T16:51:49.909Z,41.00
2023-04-22T16:54:16.826Z,41.10
2023-04-22T16:56:43.916Z,41.00
2023-04-22T16:59:11.324Z,41.10
2023-04-22T17:01:39.773Z,41.10
2023-04-22T17:04:07.596Z,41.10
2023-04-22T17:06:34.464Z,41.20
2023-04-22T17:09:01.761Z,41.30
2023-04-22T17:11:32.211Z,41.20
2023-04-22T17:13:59.300Z,41.30
2023-04-22T17:16:26.539Z,41.30
2023-04-22T17:18:53.801Z,41.30
2023-04-22T17:21:23.038Z,41.20
2023-04-22T17:23:50.204Z,41.30
2023-04-22T17:26:17.148Z,41.30
2023-04-22T17:28:44.384Z,41.30
2023-04-22T17:31:11.556Z,41.30
2023-04-22T17:33:39.891Z,41.40
2023-04-22T17:36:07.023Z,41.40
2023-04-22T17:38:34.172Z,41.40
2023-04-22T17:41:01.034Z,41.50
2023-04-22T17:43:27.929Z,41.60
2023-04-22T17:45:55.332Z,41.70
2023-04-22T17:48:22.120Z,41.90
2023-04-22T17:50:49.013Z,42.10
2023-04-22T17:53:15.863Z,42.30
2023-04-22T17:55:43.362Z,42.30
2023-04-22T17:58:10.470Z,42.40
2023-04-22T18:00:37.938Z,42.30
2023-04-22T18:03:06.099Z,42.30
2023-04-22T18:05:33.088Z,42.50
2023-04-22T18:08:02.636Z,42.60
2023-04-22T18:10:30.934Z,42.70
2023-04-22T18:12:57.864Z,42.80
2023-04-22T18:15:24.739Z,42.90
2023-04-22T18:17:51.751Z,43.00
2023-04-22T18:20:19.734Z,43.10
2023-04-22T18:22:56.318Z,43.20
2023-04-22T18:25:24.133Z,43.20
2023-04-22T18:27:55.111Z,43.30
2023-04-22T18:30:23.236Z,43.30
2023-04-22T18:32:50.809Z,43.40
2023-04-22T18:35:17.873Z,43.50
2023-04-22T18:37:46.147Z,43.50
2023-04-22T18:40:13.954Z,43.50
2023-04-22T18:42:44.404Z,43.60
2023-04-22T18:45:11.929Z,43.60
2023-04-22T18:47:39.277Z,43.70
2023-04-22T18:50:06.655Z,43.80
2023-04-22T18:52:34.609Z,43.80
2023-04-22T18:55:01.889Z,43.70
2023-04-22T18:57:29.343Z,43.70
2023-04-22T18:59:56.173Z,43.60
2023-04-22T19:02:23.086Z,43.50
2023-04-22T19:04:52.653Z,43.50
2023-04-22T19:07:19.528Z,43.50
2023-04-22T19:09:46.736Z,43.40
2023-04-22T19:12:16.494Z,43.40
2023-04-22T19:14:43.614Z,43.30
2023-04-22T19:17:11.015Z,43.20
2023-04-22T19:19:38.077Z,43.10
2023-04-22T19:22:05.219Z,43.10
2023-04-22T19:24:33.556Z,43.00
2023-04-22T19:27:06.832Z,43.00
2023-04-22T19:29:33.683Z,43.00
2023-04-22T19:32:00.843Z,43.00
2023-04-22T19:34:28.636Z,43.00
2023-04-22T19:36:55.463Z,43.00
2023-04-22T19:39:22.270Z,43.60
2023-04-22T19:41:49.175Z,42.80
2023-04-22T19:44:16.004Z,42.90
2023-04-22T19:46:43.557Z,43.00
2023-04-22T19:49:10.671Z,43.10
2023-04-22T19:51:39.390Z,43.10
2023-04-22T19:54:08.353Z,43.20
2023-04-22T19:56:35.565Z,43.20
2023-04-22T19:59:04.226Z,43.10
2023-04-22T20:01:32.365Z,43.30
2023-04-22T20:04:00.486Z,43.40
2023-04-22T20:06:28.513Z,43.40
2023-04-22T20:08:58.934Z,43.40
2023-04-22T20:11:26.656Z,43.50
2023-04-22T20:13:53.745Z,43.60
2023-04-22T20:16:23.317Z,43.70
2023-04-22T20:18:51.065Z,43.80
2023-04-22T20:21:19.703Z,43.80
2023-04-22T20:23:48.887Z,43.70
2023-04-22T20:26:20.027Z,43.70
2023-04-22T20:28:48.912Z,43.60
2023-04-22T20:31:18.546Z,44.30
2023-04-22T20:33:47.005Z,43.70
2023-04-22T20:36:17.108Z,43.80
2023-04-22T20:38:48.609Z,43.90
2023-04-22T20:41:18.767Z,44.00
2023-04-22T20:43:46.470Z,44.10
2023-04-22T20:46:13.286Z,44.20
2023-04-22T20:48:40.026Z,44.30
2023-04-22T20:51:07.330Z,44.40
2023-04-22T20:53:35.385Z,44.50
2023-04-22T20:56:02.558Z,44.50
2023-04-22T20:58:29.400Z,44.60
2023-04-22T21:00:56.264Z,44.60
2023-04-22T21:03:24.864Z,44.60
2023-04-22T21:05:52.344Z,44.60
2023-04-22T21:08:25.836Z,44.90
2023-04-22T21:10:54.374Z,44.60
2023-04-22T21:13:22.314Z,44.50
2023-04-22T21:15:59.632Z,44.50
2023-04-22T21:18:28.877Z,44.50
2023-04-22T21:20:57.256Z,44.50
2023-04-22T21:23:25.882Z,44.50
2023-04-22T21:25:56.958Z,44.50
2023-04-22T21:28:24.437Z,44.50
2023-04-22T21:30:51.738Z,44.50
2023-04-22T21:33:18.780Z,44.40
2023-04-22T21:35:47.154Z,44.40
2023-04-22T21:38:16.358Z,44.40
2023-04-22T21:40:44.058Z,44.40
2023-04-22T21:43:11.474Z,44.40
2023-04-22T21:45:39.139Z,44.30
2023-04-22T21:48:05.957Z,44.30
2023-04-22T21:50:32.870Z,44.30
2023-04-22T21:52:59.932Z,44.20
2023-04-22T21:55:26.726Z,44.20
2023-04-22T21:57:54.156Z,44.20
2023-04-22T22:00:21.440Z,44.30
2023-04-22T22:02:48.845Z,44.30
2023-04-22T22:05:16.217Z,44.50
2023-04-22T22:07:45.031Z,44.70
2023-04-22T22:10:20.229Z,44.70
2023-04-22T22:12:48.094Z,44.60
2023-04-22T22:15:16.283Z,44.50
2023-04-22T22:17:44.382Z,44.50
2023-04-22T22:20:20.467Z,44.40
2023-04-22T22:22:48.906Z,44.30
2023-04-22T22:25:17.201Z,44.30
2023-04-22T22:27:49.201Z,44.50
2023-04-22T22:30:22.992Z,44.50
2023-04-22T22:32:49.947Z,44.50
2023-04-22T22:35:16.802Z,44.50
2023-04-22T22:37:44.634Z,44.70
2023-04-22T22:40:12.053Z,44.90
2023-04-22T22:42:39.441Z,44.90
2023-04-22T22:45:06.804Z,45.00
2023-04-22T22:47:33.806Z,45.00
2023-04-22T22:50:00.864Z,45.10
2023-04-22T22:52:27.843Z,45.10
2023-04-22T22:54:54.616Z,45.30
2023-04-22T22:57:21.482Z,45.30
2023-04-22T22:59:48.225Z,45.40
2023-04-22T23:02:16.507Z,45.50
2023-04-22T23:04:43.725Z,45.60
2023-04-22T23:07:10.707Z,45.60
2023-04-22T23:09:37.617Z,45.80
2023-04-22T23:12:05.402Z,45.80
2023-04-22T23:14:33.351Z,45.90
2023-04-22T23:17:00.511Z,45.90
2023-04-22T23:19:28.457Z,46.00
2023-04-22T23:21:56.445Z,46.00
2023-04-22T23:24:23.512Z,46.10
2023-04-22T23:26:50.698Z,46.10
2023-04-22T23:29:18.855Z,46.00
2023-04-22T23:31:50.004Z,46.10
2023-04-22T23:34:18.873Z,46.10
2023-04-22T23:36:45.848Z,46.10
2023-04-22T23:39:13.085Z,46.80
2023-04-22T23:41:39.901Z,46.20
2023-04-22T23:44:06.714Z,46.10
2023-04-22T23:46:33.832Z,46.20
2023-04-22T23:49:01.435Z,46.20
2023-04-22T23:51:28.639Z,46.30
2023-04-22T23:53:55.668Z,46.30
2023-04-22T23:56:23.001Z,46.30
2023-04-22T23:58:50.981Z,46.40
